Time;durP1;ratioP1;P1;durP2;ratioP2;P2;SDS_P1;SDS_P2;PMS_P1;PMS_P2;Temp;Humidity;BMP_temperature;BMP_pressure;BME280_temperature;BME280_humidity;BME280_pressure;Samples;Min_cycle;Max_cycle;Signal;HPM_P1;HPM_P2
2022/05/14 00:00:47;;;;;;;22.20;5.97;;;13.30;99.90;;;;;;5050336;28;20043;-44
2022/05/14 00:03:13;;;;;;;29.58;7.93;;;13.30;99.90;;;;;;5049392;28;20044;-46
2022/05/14 00:05:39;;;;;;;22.77;5.47;;;13.30;99.90;;;;;;5051157;28;20048;-46
2022/05/14 00:08:05;;;;;;;19.58;5.72;;;13.40;99.90;;;;;;5053871;28;20037;-44
2022/05/14 00:10:33;;;;;;;21.23;6.78;;;13.30;99.90;;;;;;5046307;28;20070;-49
2022/05/14 00:13:04;;;;;;;18.75;5.68;;;13.30;99.90;;;;;;5052471;28;20171;-43
2022/05/14 00:15:39;;;;;;;27.73;6.82;;;13.30;99.90;;;;;;5049943;28;20040;-43
2022/05/14 00:18:07;;;;;;;33.70;7.13;;;13.30;99.90;;;;;;5055894;28;20036;-43
2022/05/14 00:20:36;;;;;;;25.45;6.32;;;13.20;99.90;;;;;;5055777;28;20048;-47
2022/05/14 00:23:03;;;;;;;18.48;6.20;;;13.20;99.90;;;;;;5054851;28;20351;-45
2022/05/14 00:25:30;;;;;;;23.67;6.88;;;13.20;99.90;;;;;;5058086;28;20048;-44
2022/05/14 00:27:55;;;;;;;26.13;7.82;;;13.20;99.90;;;;;;5051474;28;20052;-43
2022/05/14 00:30:24;;;;;;;25.90;6.93;;;13.10;99.90;;;;;;5053300;28;20041;-47
2022/05/14 00:32:51;;;;;;;24.88;6.22;;;13.10;99.90;;;;;;5049550;28;20071;-44
2022/05/14 00:35:17;;;;;;;28.63;8.65;;;13.10;99.90;;;;;;5051784;28;20041;-46
2022/05/14 00:37:44;;;;;;;16.85;5.90;;;13.10;99.90;;;;;;5053015;28;20040;-44
2022/05/14 00:40:27;;;;;;;26.65;7.43;;;13.10;99.90;;;;;;5051574;28;20060;-44
2022/05/14 00:42:54;;;;;;;27.58;6.95;;;13.10;99.90;;;;;;5052120;28;20037;-44
2022/05/14 00:45:21;;;;;;;25.20;7.00;;;13.10;99.90;;;;;;5048809;28;20055;-43
2022/05/14 00:47:52;;;;;;;27.88;7.35;;;13.10;99.90;;;;;;5053998;28;20048;-44
2022/05/14 00:50:47;;;;;;;26.45;7.38;;;13.00;99.90;;;;;;5051317;28;20087;-45
2022/05/14 00:53:15;;;;;;;23.17;7.07;;;13.00;99.90;;;;;;5049588;28;20570;-43
2022/05/14 00:55:44;;;;;;;26.75;7.43;;;13.00;99.90;;;;;;5050452;22;20144;-46
2022/05/14 00:58:13;;;;;;;21.48;6.38;;;13.00;99.90;;;;;;5005725;28;20120;-42
2022/05/14 01:00:39;;;;;;;23.02;7.68;;;13.00;99.90;;;;;;5008918;28;20504;-50
2022/05/14 01:03:06;;;;;;;29.08;8.60;;;13.10;99.90;;;;;;5006455;28;20048;-46
2022/05/14 01:05:32;;;;;;;21.73;7.07;;;13.00;99.90;;;;;;4993667;28;20077;-50
2022/05/14 01:08:02;;;;;;;29.92;7.47;;;13.00;99.90;;;;;;4998726;28;20212;-46
2022/05/14 01:10:33;;;;;;;26.77;8.15;;;13.00;99.90;;;;;;4995473;28;20046;-44
2022/05/14 01:13:01;;;;;;;27.55;7.43;;;13.00;99.90;;;;;;4996592;28;20417;-45
2022/05/14 01:15:43;;;;;;;28.30;7.70;;;13.00;99.90;;;;;;4996114;28;20402;-46
2022/05/14 01:18:10;;;;;;;30.00;8.25;;;13.00;99.90;;;;;;5012532;28;20308;-42
2022/05/14 01:20:36;;;;;;;28.02;6.78;;;13.00;99.90;;;;;;4996910;28;20084;-46
2022/05/14 01:23:31;;;;;;;30.00;8.25;;;12.90;99.90;;;;;;5002477;28;20050;-43
2022/05/14 01:26:29;;;;;;;32.50;8.15;;;12.90;99.90;;;;;;5004334;28;20029;-44
2022/05/14 01:29:04;;;;;;;29.48;8.77;;;12.90;99.90;;;;;;5002566;28;20037;-44
2022/05/14 01:31:30;;;;;;;33.30;7.80;;;12.80;99.90;;;;;;4987591;28;20046;-45
2022/05/14 01:34:00;;;;;;;25.70;7.45;;;12.80;99.90;;;;;;4998148;28;20165;-45
2022/05/14 01:36:26;;;;;;;33.50;9.65;;;12.80;99.90;;;;;;4999387;28;20069;-45
2022/05/14 01:38:55;;;;;;;35.42;8.90;;;12.80;99.90;;;;;;5010377;28;20096;-42
2022/05/14 01:41:21;;;;;;;30.73;8.88;;;12.70;99.90;;;;;;5000498;28;20046;-46
2022/05/14 01:43:48;;;;;;;27.23;9.07;;;12.70;99.90;;;;;;4992382;28;20046;-46
2022/05/14 01:46:14;;;;;;;45.03;12.00;;;12.70;99.90;;;;;;5009122;28;20386;-48
2022/05/14 01:48:39;;;;;;;32.90;9.13;;;12.70;99.90;;;;;;5005632;28;20088;-46
2022/05/14 01:51:06;;;;;;;33.15;8.65;;;12.60;99.90;;;;;;4996196;28;20048;-47
2022/05/14 01:53:32;;;;;;;34.15;9.20;;;12.60;99.90;;;;;;5008977;28;20115;-49
2022/05/14 01:55:58;;;;;;;28.80;9.70;;;12.60;99.90;;;;;;5004470;28;20049;-47
2022/05/14 01:58:37;;;;;;;28.48;9.18;;;12.60;99.90;;;;;;5012832;28;20409;-44
2022/05/14 02:01:21;;;;;;;31.92;8.95;;;12.50;99.90;;;;;;5003785;28;20050;-47
2022/05/14 02:03:51;;;;;;;33.78;10.68;;;12.50;99.90;;;;;;5001789;28;20049;-46
2022/05/14 02:06:17;;;;;;;35.03;9.07;;;12.50;99.90;;;;;;4994115;28;20042;-48
2022/05/14 02:08:43;;;;;;;37.53;9.60;;;12.50;99.90;;;;;;5004216;28;20139;-44
2022/05/14 02:11:10;;;;;;;28.17;9.20;;;12.50;99.90;;;;;;5006346;28;20038;-43
2022/05/14 02:13:37;;;;;;;36.38;10.60;;;12.40;99.90;;;;;;5010211;28;20065;-44
2022/05/14 02:16:04;;;;;;;26.30;8.70;;;12.40;99.90;;;;;;5009516;28;20508;-47
2022/05/14 02:18:30;;;;;;;29.95;9.93;;;12.40;99.90;;;;;;5008560;28;20044;-45
2022/05/14 02:20:56;;;;;;;33.35;9.38;;;12.40;99.90;;;;;;5004868;28;20398;-47
2022/05/14 02:23:22;;;;;;;35.58;9.43;;;12.30;99.90;;;;;;5008844;28;20033;-46
2022/05/14 02:25:48;;;;;;;43.60;10.60;;;12.30;99.90;;;;;;5011767;28;20092;-48
2022/05/14 02:28:15;;;;;;;31.13;8.80;;;12.30;99.90;;;;;;5008238;28;20073;-46
2022/05/14 02:30:41;;;;;;;37.03;10.15;;;12.30;99.90;;;;;;5010957;28;20121;-46
2022/05/14 02:33:07;;;;;;;47.53;10.18;;;12.30;99.90;;;;;;5001466;28;20113;-49
2022/05/14 02:35:33;;;;;;;29.63;9.77;;;12.30;99.90;;;;;;5007084;28;20038;-46
2022/05/14 02:37:59;;;;;;;31.42;8.45;;;12.30;99.90;;;;;;5007781;28;20044;-45
2022/05/14 02:40:26;;;;;;;34.22;9.30;;;12.30;99.90;;;;;;5003894;28;20160;-44
2022/05/14 02:42:52;;;;;;;36.95;10.02;;;12.20;99.90;;;;;;5006755;28;20121;-46
2022/05/14 02:45:19;;;;;;;28.60;9.13;;;12.20;99.90;;;;;;5010090;28;20583;-47
2022/05/14 02:47:44;;;;;;;36.55;10.48;;;12.20;99.90;;;;;;5000329;28;20493;-43
2022/05/14 02:50:11;;;;;;;32.72;9.23;;;12.20;99.90;;;;;;5002043;28;20062;-42
2022/05/14 02:52:37;;;;;;;35.42;10.23;;;12.20;99.90;;;;;;4997479;28;20046;-47
2022/05/14 02:55:05;;;;;;;36.10;10.68;;;12.20;99.90;;;;;;5001387;28;20042;-46
2022/05/14 02:57:31;;;;;;;41.40;10.82;;;12.20;99.90;;;;;;4996386;28;20096;-43
2022/05/14 02:59:57;;;;;;;40.60;9.63;;;12.10;99.90;;;;;;5002147;28;20076;-43
2022/05/14 03:02:22;;;;;;;34.08;10.32;;;12.10;99.90;;;;;;4999660;28;20045;-45
2022/05/14 03:04:48;;;;;;;34.20;10.40;;;12.10;99.90;;;;;;5004296;28;20046;-46
2022/05/14 03:07:15;;;;;;;36.95;10.05;;;12.10;99.90;;;;;;4999067;28;20929;-45
2022/05/14 03:09:42;;;;;;;39.97;10.45;;;12.10;99.90;;;;;;4998196;28;20077;-43
2022/05/14 03:12:10;;;;;;;26.88;8.32;;;12.10;99.90;;;;;;4999918;28;20042;-48
2022/05/14 03:14:36;;;;;;;39.83;10.63;;;12.10;99.90;;;;;;4999309;28;20041;-47
2022/05/14 03:17:02;;;;;;;27.45;9.60;;;12.10;99.90;;;;;;4997801;28;20497;-46
2022/05/14 03:19:28;;;;;;;38.78;9.80;;;12.10;99.90;;;;;;5001965;28;20042;-44
2022/05/14 03:21:54;;;;;;;37.58;10.50;;;12.10;99.90;;;;;;4997425;28;20509;-46
2022/05/14 03:24:20;;;;;;;31.40;8.93;;;12.10;99.90;;;;;;5010187;28;20045;-43
2022/05/14 03:26:46;;;;;;;39.60;9.98;;;12.10;99.90;;;;;;5019838;28;20037;-44
2022/05/14 03:29:12;;;;;;;34.00;8.77;;;12.10;99.90;;;;;;5005924;28;20036;-47
2022/05/14 03:31:40;;;;;;;35.72;10.05;;;12.00;99.90;;;;;;4998981;28;20123;-46
2022/05/14 03:34:07;;;;;;;42.83;10.85;;;12.00;99.90;;;;;;5006396;28;20073;-42
2022/05/14 03:36:33;;;;;;;33.05;9.77;;;12.00;99.90;;;;;;4998053;28;20037;-44
2022/05/14 03:38:59;;;;;;;34.70;9.57;;;12.00;99.90;;;;;;5010551;28;20049;-47
2022/05/14 03:41:25;;;;;;;38.47;9.15;;;12.00;99.90;;;;;;4997300;28;20103;-44
2022/05/14 03:43:51;;;;;;;36.53;8.93;;;12.00;99.90;;;;;;5000034;28;20502;-44
2022/05/14 03:46:17;;;;;;;44.35;8.82;;;12.00;99.90;;;;;;4998446;28;20084;-44
2022/05/14 03:48:44;;;;;;;34.50;10.23;;;12.00;99.90;;;;;;5002918;28;20045;-47
2022/05/14 03:51:10;;;;;;;39.50;10.70;;;12.00;99.90;;;;;;5005952;28;20455;-43
2022/05/14 03:53:37;;;;;;;36.00;9.35;;;12.00;99.90;;;;;;4994887;28;20499;-46
2022/05/14 03:56:04;;;;;;;31.20;9.88;;;12.00;99.90;;;;;;5002498;28;20493;-45
2022/05/14 03:58:30;;;;;;;43.25;11.25;;;12.00;99.90;;;;;;5006902;28;20045;-48
2022/05/14 04:00:56;;;;;;;35.90;10.52;;;11.90;99.90;;;;;;4999826;28;20517;-46
2022/05/14 04:03:23;;;;;;;34.83;10.07;;;11.90;99.90;;;;;;4983520;28;20081;-43
2022/05/14 04:05:49;;;;;;;41.03;9.70;;;12.00;99.90;;;;;;4996606;28;20038;-46
2022/05/14 04:08:17;;;;;;;34.65;10.30;;;11.90;99.90;;;;;;4980643;28;20046;-48
2022/05/14 04:10:44;;;;;;;32.22;9.27;;;11.90;99.90;;;;;;5001401;28;20368;-44
2022/05/14 04:13:11;;;;;;;36.67;9.82;;;11.90;99.90;;;;;;5012952;28;20045;-48
2022/05/14 04:15:38;;;;;;;36.95;8.65;;;11.90;99.90;;;;;;4995054;28;20393;-45
2022/05/14 04:18:04;;;;;;;27.58;9.50;;;11.90;99.90;;;;;;5004379;28;20049;-44
2022/05/14 04:20:30;;;;;;;32.65;9.02;;;11.90;99.90;;;;;;4995973;28;20119;-47
2022/05/14 04:22:57;;;;;;;33.67;9.40;;;11.90;99.90;;;;;;5000629;28;20038;-43
2022/05/14 04:25:24;;;;;;;23.83;9.07;;;11.90;99.90;;;;;;5006250;28;20042;-45
2022/05/14 04:27:50;;;;;;;35.20;9.82;;;11.90;99.90;;;;;;5000107;28;20087;-46
2022/05/14 04:30:17;;;;;;;32.80;9.15;;;11.90;99.90;;;;;;4999868;28;20176;-47
2022/05/14 04:32:43;;;;;;;30.17;8.35;;;11.80;99.90;;;;;;4998933;28;20088;-44
2022/05/14 04:35:12;;;;;;;29.38;8.63;;;11.80;99.90;;;;;;4995740;28;20045;-46
2022/05/14 04:37:38;;;;;;;34.60;9.63;;;11.90;99.90;;;;;;4997433;28;20522;-47
2022/05/14 04:40:09;;;;;;;36.53;9.82;;;11.90;99.90;;;;;;5004576;28;20268;-43
2022/05/14 04:42:38;;;;;;;30.30;9.10;;;11.90;99.90;;;;;;5007360;28;20054;-44
2022/05/14 04:45:08;;;;;;;32.92;9.45;;;11.90;99.90;;;;;;4998448;28;20505;-44
2022/05/14 04:47:35;;;;;;;33.63;8.20;;;11.90;99.90;;;;;;4995798;28;20034;-43
2022/05/14 04:50:01;;;;;;;36.92;8.75;;;11.90;99.90;;;;;;4999449;28;20125;-45
2022/05/14 04:52:26;;;;;;;31.85;9.13;;;12.00;99.90;;;;;;5009898;22;20042;-48
2022/05/14 04:54:52;;;;;;;32.35;8.98;;;12.00;99.90;;;;;;5031570;28;20459;-49
2022/05/14 04:57:18;;;;;;;25.33;8.13;;;12.00;99.90;;;;;;5031548;28;20048;-48
2022/05/14 04:59:53;;;;;;;32.28;8.05;;;12.10;99.90;;;;;;5031161;28;20041;-50
2022/05/14 05:05:04;;;;;;;43.33;9.10;;;12.10;99.90;;;;;;5029885;28;20056;-51
2022/05/14 05:07:30;;;;;;;34.67;9.73;;;12.10;99.90;;;;;;5031424;28;20055;-49
2022/05/14 05:09:56;;;;;;;30.88;8.90;;;12.10;99.90;;;;;;5031464;28;20120;-51
2022/05/14 05:12:22;;;;;;;33.53;9.13;;;12.20;99.90;;;;;;5031218;28;20079;-49
2022/05/14 05:14:48;;;;;;;28.75;8.60;;;12.20;99.90;;;;;;5029991;28;20033;-51
2022/05/14 05:17:13;;;;;;;26.00;7.93;;;12.20;99.90;;;;;;5030224;28;20041;-51
2022/05/14 05:19:39;;;;;;;27.02;8.60;;;12.30;99.90;;;;;;5031339;28;20076;-48
2022/05/14 05:22:05;;;;;;;26.00;8.52;;;12.30;99.90;;;;;;5030287;28;20048;-51
2022/05/14 05:24:31;;;;;;;32.40;9.27;;;12.30;99.90;;;;;;5031438;28;20045;-50
2022/05/14 05:26:57;;;;;;;30.85;8.45;;;12.40;99.90;;;;;;5031529;28;20073;-50
2022/05/14 05:29:23;;;;;;;28.63;8.02;;;12.40;99.90;;;;;;5030995;28;20147;-51
2022/05/14 05:31:49;;;;;;;30.45;8.88;;;12.40;99.90;;;;;;5032423;28;20050;-50
2022/05/14 05:34:14;;;;;;;22.63;7.25;;;12.50;99.90;;;;;;5017117;28;20048;-50
2022/05/14 05:36:40;;;;;;;25.15;7.72;;;12.60;99.90;;;;;;5034912;28;20041;-47
2022/05/14 05:39:06;;;;;;;30.70;8.80;;;12.60;99.90;;;;;;5035421;28;20037;-50
2022/05/14 05:41:35;;;;;;;30.52;8.52;;;12.60;99.90;;;;;;5034967;28;20436;-50
2022/05/14 05:44:01;;;;;;;32.60;9.32;;;12.70;99.90;;;;;;5035094;28;20045;-49
2022/05/14 05:46:27;;;;;;;29.10;8.68;;;12.80;99.90;;;;;;5033666;28;20510;-49
2022/05/14 05:48:52;;;;;;;27.85;7.53;;;12.80;99.90;;;;;;5035045;28;20034;-52
2022/05/14 05:51:18;;;;;;;27.90;7.88;;;12.90;99.90;;;;;;5034792;28;20065;-47
2022/05/14 05:56:47;;;;;;;32.25;8.15;;;13.10;99.90;;;;;;5034537;28;20103;-50
2022/05/14 05:59:14;;;;;;;;;;;13.10;99.90;;;;;;5034073;28;20037;-50
2022/05/14 06:01:40;;;;;;;33.10;9.15;;;13.20;99.90;;;;;;5034013;28;19921;-50
2022/05/14 06:04:06;;;;;;;23.48;7.97;;;13.30;99.90;;;;;;5034355;28;20049;-50
2022/05/14 06:06:33;;;;;;;22.63;7.18;;;13.40;99.90;;;;;;5034367;28;20099;-49
2022/05/14 06:09:00;;;;;;;25.20;7.93;;;13.50;99.90;;;;;;5034681;28;20038;-50
2022/05/14 06:11:26;;;;;;;27.13;7.78;;;13.60;99.90;;;;;;5034289;28;20034;-50
2022/05/14 06:13:52;;;;;;;26.65;8.05;;;13.60;99.90;;;;;;5034409;28;20441;-50
2022/05/14 06:16:18;;;;;;;30.20;7.55;;;13.70;99.90;;;;;;5034655;28;20095;-51
2022/05/14 06:18:44;;;;;;;23.55;6.40;;;13.80;99.90;;;;;;5033940;28;20509;-51
2022/05/14 06:21:11;;;;;;;25.45;7.25;;;13.90;99.90;;;;;;5034197;28;20037;-50
2022/05/14 06:23:37;;;;;;;25.90;6.88;;;13.90;99.90;;;;;;5016651;28;20493;-49
2022/05/14 06:26:03;;;;;;;28.20;8.10;;;13.90;99.90;;;;;;5034054;28;20045;-49
2022/05/14 06:28:29;;;;;;;25.70;6.63;;;14.00;99.90;;;;;;5034034;28;20033;-48
2022/05/14 06:30:57;;;;;;;27.65;8.07;;;14.20;99.90;;;;;;5033982;28;20041;-52
2022/05/14 06:33:23;;;;;;;26.25;6.82;;;14.30;99.90;;;;;;5034395;28;20042;-53
2022/05/14 06:35:49;;;;;;;26.90;7.22;;;14.40;99.90;;;;;;5033978;28;20064;-50
2022/05/14 06:38:15;;;;;;;24.67;6.82;;;14.50;99.90;;;;;;5034086;28;20045;-49
2022/05/14 06:40:42;;;;;;;20.65;5.78;;;14.50;99.90;;;;;;5016267;28;20055;-49
2022/05/14 06:43:08;;;;;;;25.98;5.63;;;14.50;99.90;;;;;;5033227;28;20041;-47
2022/05/14 06:45:34;;;;;;;22.08;6.35;;;14.50;99.90;;;;;;5032282;28;20128;-50
2022/05/14 06:48:00;;;;;;;24.85;5.80;;;14.60;99.90;;;;;;5032764;28;20501;-50
2022/05/14 06:50:31;;;;;;;23.95;5.45;;;14.70;99.90;;;;;;5032152;28;20520;-48
2022/05/14 06:52:59;;;;;;;23.75;5.40;;;14.70;99.90;;;;;;5031457;28;20133;-50
2022/05/14 06:55:28;;;;;;;22.45;5.93;;;14.70;99.90;;;;;;5033804;28;20034;-47
2022/05/14 06:58:51;;;;;;;29.48;5.88;;;14.70;99.90;;;;;;5033323;28;20041;-49
2022/05/14 07:01:19;;;;;;;23.23;6.30;;;14.90;99.90;;;;;;4971054;28;20042;-47
2022/05/14 07:06:43;;;;;;;24.17;5.57;;;15.00;99.90;;;;;;5032521;28;20360;-51
2022/05/14 07:09:19;;;;;;;24.67;5.47;;;15.20;99.90;;;;;;5032589;28;20064;-50
2022/05/14 07:11:47;;;;;;;16.80;4.93;;;15.20;99.90;;;;;;5030632;28;20509;-49
2022/05/14 07:14:16;;;;;;;21.65;5.95;;;15.30;99.90;;;;;;5030803;28;20045;-48
2022/05/14 07:16:43;;;;;;;24.77;6.22;;;15.30;99.90;;;;;;5031027;28;20038;-49
2022/05/14 07:19:09;;;;;;;19.30;5.25;;;15.50;99.90;;;;;;5032338;28;20068;-48
2022/05/14 07:21:37;;;;;;;18.50;5.13;;;15.50;99.90;;;;;;5031574;28;20037;-48
2022/05/14 07:24:06;;;;;;;26.88;5.40;;;15.60;99.90;;;;;;5030769;28;20049;-51
2022/05/14 07:26:34;;;;;;;19.48;5.25;;;15.70;99.90;;;;;;5031936;28;20037;-48
2022/05/14 07:29:08;;;;;;;18.20;5.07;;;15.80;99.90;;;;;;5030776;28;20046;-46
2022/05/14 07:31:34;;;;;;;17.85;4.88;;;15.90;99.90;;;;;;5032123;28;20033;-47
2022/05/14 07:34:01;;;;;;;18.17;5.22;;;16.00;99.90;;;;;;5031464;28;20041;-50
2022/05/14 07:36:33;;;;;;;27.38;6.00;;;16.10;99.90;;;;;;5029768;28;20048;-51
2022/05/14 07:39:03;;;;;;;16.95;4.72;;;16.00;99.90;;;;;;5031364;28;20056;-47
2022/05/14 07:41:29;;;;;;;21.65;5.07;;;16.10;99.90;;;;;;5030241;28;20085;-47
2022/05/14 07:43:58;;;;;;;23.05;4.03;;;16.30;99.90;;;;;;5030577;28;20048;-47
2022/05/14 07:46:28;;;;;;;21.30;4.85;;;16.40;99.90;;;;;;5030614;28;20045;-51
2022/05/14 07:48:56;;;;;;;18.88;4.97;;;16.40;99.90;;;;;;5031576;28;20172;-47
2022/05/14 07:51:22;;;;;;;16.30;4.35;;;16.40;99.90;;;;;;5029734;28;20041;-48
2022/05/14 07:53:48;;;;;;;18.10;5.10;;;16.50;99.90;;;;;;5030740;28;20140;-50
2022/05/14 07:56:14;;;;;;;18.38;4.55;;;16.60;99.90;;;;;;5013692;28;20517;-47
2022/05/14 07:58:43;;;;;;;18.05;4.60;;;16.60;99.90;;;;;;5031582;28;20071;-49
2022/05/14 08:01:09;;;;;;;19.90;5.82;;;16.70;99.90;;;;;;5030106;28;20048;-50
2022/05/14 08:03:35;;;;;;;13.48;4.70;;;16.80;99.90;;;;;;5031496;28;20048;-47
2022/05/14 08:06:01;;;;;;;16.77;5.07;;;16.90;99.80;;;;;;5029897;28;20525;-49
2022/05/14 08:08:28;;;;;;;17.65;4.80;;;16.80;99.00;;;;;;5029946;28;20037;-47
2022/05/14 08:10:55;;;;;;;22.23;6.18;;;16.80;99.00;;;;;;5029886;28;20049;-53
2022/05/14 08:13:23;;;;;;;19.88;5.22;;;16.90;99.50;;;;;;5030611;28;20076;-47
2022/05/14 08:15:53;;;;;;;14.38;4.93;;;17.10;99.60;;;;;;5031163;28;20041;-51
2022/05/14 08:18:19;;;;;;;18.52;5.88;;;17.20;99.40;;;;;;5031128;28;20037;-49
2022/05/14 08:20:50;;;;;;;21.17;5.45;;;17.20;98.30;;;;;;5030700;28;20042;-52
2022/05/14 08:26:01;;;;;;;15.82;4.88;;;17.20;98.80;;;;;;5030995;28;20128;-50
2022/05/14 08:28:31;;;;;;;14.75;5.18;;;17.30;98.60;;;;;;5030929;28;20516;-47
2022/05/14 08:30:57;;;;;;;20.23;4.90;;;17.40;98.70;;;;;;5030575;28;20132;-48
2022/05/14 08:33:23;;;;;;;18.10;5.03;;;17.50;98.20;;;;;;5029714;28;20168;-50
2022/05/14 08:35:49;;;;;;;17.67;5.18;;;17.50;98.10;;;;;;5031166;28;20025;-48
2022/05/14 08:38:16;;;;;;;19.13;5.47;;;17.40;97.60;;;;;;5029262;28;20401;-52
2022/05/14 08:40:50;;;;;;;18.88;5.50;;;17.40;97.80;;;;;;5030833;28;20049;-49
2022/05/14 08:43:25;;;;;;;27.25;6.07;;;17.40;97.70;;;;;;5043912;28;20040;-48
2022/05/14 08:45:51;;;;;;;18.10;5.88;;;17.70;97.80;;;;;;5032320;28;20051;-47
2022/05/14 08:48:29;;;;;;;19.02;5.53;;;18.00;97.40;;;;;;5049152;28;20040;-47
2022/05/14 08:51:04;;;;;;;16.45;4.85;;;18.00;95.40;;;;;;5050388;28;20045;-49
2022/05/14 08:53:35;;;;;;;21.30;5.70;;;18.00;96.40;;;;;;5048834;28;20045;-50
2022/05/14 08:56:18;;;;;;;19.38;5.40;;;17.80;95.80;;;;;;5050466;28;20088;-49
2022/05/14 08:58:47;;;;;;;15.33;5.80;;;18.10;96.00;;;;;;5050611;28;20047;-46
2022/05/14 09:01:18;;;;;;;16.58;4.93;;;18.30;96.50;;;;;;5048931;28;20045;-49
2022/05/14 09:03:45;;;;;;;21.58;6.82;;;18.30;94.50;;;;;;5033050;28;20106;-49
2022/05/14 09:06:11;;;;;;;18.58;5.75;;;18.50;95.40;;;;;;5051450;28;20041;-48
2022/05/14 09:08:41;;;;;;;20.15;5.35;;;18.70;94.90;;;;;;5054442;28;20051;-50
2022/05/14 09:11:17;;;;;;;18.38;5.15;;;18.90;95.30;;;;;;5054048;28;20501;-50
2022/05/14 09:13:46;;;;;;;18.13;5.25;;;19.20;94.40;;;;;;5053771;28;20041;-47
2022/05/14 09:16:26;;;;;;;19.05;4.72;;;19.30;94.20;;;;;;5035761;28;20044;-47
2022/05/14 09:29:59;;;;;;;18.52;5.78;;;19.20;90.90;;;;;;5053932;28;20433;-46
2022/05/14 09:32:33;;;;;;;22.30;5.07;;;19.40;93.30;;;;;;5053760;28;20047;-54
2022/05/14 09:35:20;;;;;;;20.67;5.57;;;19.60;91.90;;;;;;5053706;28;20141;-47
2022/05/14 09:37:46;;;;;;;17.52;5.28;;;19.40;91.60;;;;;;5054043;28;20044;-50
2022/05/14 09:40:25;;;;;;;18.08;5.35;;;19.40;92.00;;;;;;5054192;28;20045;-50
2022/05/14 09:43:08;;;;;;;15.40;5.22;;;19.30;91.80;;;;;;5053908;28;20400;-48
2022/05/14 09:45:37;;;;;;;22.42;6.10;;;19.30;92.20;;;;;;5052641;28;20503;-51
2022/05/14 09:48:22;;;;;;;21.17;6.05;;;19.60;92.30;;;;;;5054159;28;20044;-52
2022/05/14 09:50:56;;;;;;;22.35;5.70;;;19.90;91.80;;;;;;5053390;28;20048;-50
2022/05/14 09:53:28;;;;;;;20.42;5.30;;;20.00;90.90;;;;;;5050631;28;20049;-48
2022/05/14 09:56:23;;;;;;;23.90;6.67;;;19.30;87.50;;;;;;5051793;28;20072;-49
2022/05/14 09:59:19;;;;;;;21.42;5.80;;;18.90;88.70;;;;;;5053420;28;20036;-47
2022/05/14 10:02:07;;;;;;;20.55;5.60;;;18.90;90.20;;;;;;5052438;28;20045;-50
2022/05/14 10:27:05;;;;;;;21.25;6.13;;;18.50;90.00;;;;;;5052072;28;20098;-51
2022/05/14 10:29:46;;;;;;;20.30;5.70;;;18.90;91.00;;;;;;5050652;28;20053;-48
2022/05/14 10:32:14;;;;;;;19.00;5.28;;;19.30;86.70;;;;;;5053281;28;20480;-49
2022/05/14 10:34:55;;;;;;;22.42;5.32;;;19.30;88.50;;;;;;5051380;28;20072;-48
2022/05/14 10:37:35;;;;;;;20.92;6.57;;;19.20;87.00;;;;;;5052036;28;20505;-48
2022/05/14 10:40:18;;;;;;;26.85;6.85;;;19.10;90.00;;;;;;5052924;28;20047;-51
2022/05/14 10:42:52;;;;;;;19.67;5.60;;;19.20;86.10;;;;;;5052398;28;20049;-45
2022/05/14 10:45:24;;;;;;;23.10;6.32;;;19.10;84.60;;;;;;5052352;28;20083;-47
2022/05/14 10:48:17;;;;;;;21.75;5.70;;;19.00;86.60;;;;;;5052198;28;20045;-52
2022/05/14 10:50:43;;;;;;;18.35;5.72;;;19.20;88.50;;;;;;5052251;28;20041;-48
2022/05/14 10:53:10;;;;;;;22.67;6.03;;;19.50;83.60;;;;;;5052304;28;20572;-51
2022/05/14 10:55:48;;;;;;;21.75;5.25;;;19.80;82.60;;;;;;5052302;28;20044;-48
2022/05/14 10:58:54;;;;;;;25.27;6.28;;;19.80;84.70;;;;;;5052742;28;20091;-49
2022/05/14 11:02:03;;;;;;;22.98;6.68;;;19.70;81.70;;;;;;4990415;28;20046;-51
2022/05/14 11:08:15;;;;;;;21.08;5.78;;;19.40;79.30;;;;;;4987763;28;20085;-52
2022/05/14 11:18:17;;;;;;;21.67;5.70;;;20.90;82.00;;;;;;4988720;28;20033;-47
2022/05/14 11:20:59;;;;;;;24.08;6.60;;;20.30;78.40;;;;;;5050151;28;20566;-50
2022/05/14 11:27:35;;;;;;;26.35;6.63;;;20.40;79.70;;;;;;5048922;28;20396;-46
2022/05/14 11:30:12;;;;;;;20.02;6.40;;;19.80;78.50;;;;;;5050404;28;20041;-50
2022/05/14 11:40:13;;;;;;;18.73;5.25;;;19.60;80.80;;;;;;5051560;28;20048;-49
2022/05/14 11:42:39;;;;;;;27.77;6.53;;;19.90;79.30;;;;;;5050857;28;20052;-50
2022/05/14 11:45:19;;;;;;;19.23;6.00;;;19.60;80.10;;;;;;5051252;28;20483;-48
2022/05/14 11:47:53;;;;;;;20.33;5.95;;;19.50;80.00;;;;;;5050185;28;20141;-47
2022/05/14 11:50:23;;;;;;;21.10;5.78;;;19.00;79.80;;;;;;5049750;28;20124;-47
2022/05/14 11:53:11;;;;;;;20.38;6.28;;;19.10;82.20;;;;;;5050965;28;20040;-48
2022/05/14 11:55:48;;;;;;;19.92;5.82;;;19.60;83.30;;;;;;5051198;28;20397;-49
2022/05/14 11:58:41;;;;;;;17.40;5.78;;;19.80;79.70;;;;;;5050202;28;20049;-49
2022/05/14 12:01:20;;;;;;;25.33;6.95;;;20.00;80.30;;;;;;5040201;28;20536;-51
2022/05/14 12:03:47;;;;;;;20.33;5.78;;;20.10;75.50;;;;;;5049960;28;20505;-47
2022/05/14 12:06:48;;;;;;;14.52;5.88;;;20.40;77.40;;;;;;5051237;28;20119;-49
2022/05/14 12:09:19;;;;;;;20.23;5.72;;;20.20;74.50;;;;;;5050997;28;20088;-48
2022/05/14 12:11:48;;;;;;;21.20;6.25;;;20.00;75.00;;;;;;5050503;28;20041;-47
2022/05/14 12:14:20;;;;;;;13.48;5.82;;;20.30;77.40;;;;;;5050378;28;20047;-48
2022/05/14 12:16:55;;;;;;;20.73;5.40;;;20.40;76.50;;;;;;5050830;28;20040;-51
2022/05/14 12:19:24;;;;;;;18.05;5.57;;;20.60;73.60;;;;;;5049651;28;20080;-47
2022/05/14 12:21:54;;;;;;;21.40;5.97;;;20.90;74.00;;;;;;5050982;28;20497;-49
2022/05/14 12:24:42;;;;;;;22.67;6.25;;;20.60;72.40;;;;;;5050746;28;20045;-49
2022/05/14 12:27:25;;;;;;;19.40;5.63;;;20.80;74.10;;;;;;5050534;28;20040;-46
2022/05/14 12:29:58;;;;;;;23.40;6.05;;;20.00;71.20;;;;;;5051262;28;20084;-47
2022/05/14 12:35:24;;;;;;;19.67;6.03;;;20.00;71.60;;;;;;5049920;28;20037;-47
2022/05/14 12:37:56;;;;;;;20.73;6.15;;;20.00;74.20;;;;;;5050442;28;20049;-46
2022/05/14 12:40:30;;;;;;;14.07;5.35;;;20.40;71.90;;;;;;5050352;28;20507;-47
2022/05/14 12:42:57;;;;;;;18.45;6.22;;;20.40;73.50;;;;;;5050003;28;20056;-47
2022/05/14 12:45:41;;;;;;;21.90;5.85;;;20.10;75.30;;;;;;5048791;28;20047;-46
2022/05/14 12:48:07;;;;;;;;;;;20.10;75.90;;;;;;5049793;28;20264;-47
2022/05/14 12:50:33;;;;;;;18.73;5.78;;;20.40;75.40;;;;;;5050009;28;20060;-49
2022/05/14 12:53:11;;;;;;;23.33;6.20;;;20.70;75.50;;;;;;5046834;28;20501;-50
2022/05/14 12:55:49;;;;;;;22.23;5.38;;;20.20;72.10;;;;;;5047607;28;20037;-46
2022/05/14 12:58:16;;;;;;;17.02;5.82;;;20.40;73.40;;;;;;5048466;28;20094;-49
2022/05/14 13:00:50;;;;;;;21.15;5.60;;;20.60;74.30;;;;;;5051440;28;20393;-51
2022/05/14 13:03:19;;;;;;;22.60;6.55;;;20.40;74.10;;;;;;5050025;28;20068;-49
2022/05/14 13:05:52;;;;;;;23.40;6.50;;;20.00;73.80;;;;;;5050040;28;20045;-48
2022/05/14 13:08:22;;;;;;;20.80;7.03;;;19.80;75.20;;;;;;5051430;28;20493;-48
2022/05/14 13:10:51;;;;;;;18.35;5.82;;;19.90;76.90;;;;;;5051111;28;20503;-51
2022/05/14 13:13:18;;;;;;;21.27;6.00;;;20.10;78.20;;;;;;5050188;28;20055;-50
2022/05/14 13:15:53;;;;;;;20.10;5.93;;;20.20;75.30;;;;;;5050262;28;20120;-49
2022/05/14 13:18:33;;;;;;;20.85;6.22;;;20.10;75.70;;;;;;5034473;28;20064;-50
2022/05/14 13:24:03;;;;;;;23.00;5.28;;;19.70;74.80;;;;;;5068174;28;20048;-45
2022/05/14 13:26:47;;;;;;;;;;;19.70;77.00;;;;;;5058597;28;20174;-43
2022/05/14 13:29:15;;;;;;;22.47;6.63;;;19.50;75.70;;;;;;5040985;28;19936;-46
2022/05/14 13:31:44;;;;;;;19.90;5.40;;;19.40;77.50;;;;;;5044301;28;20746;-46
2022/05/14 13:37:31;;;;;;;20.55;5.90;;;19.10;78.40;;;;;;5047773;28;20448;-49
2022/05/14 13:40:21;;;;;;;21.92;5.70;;;19.00;79.30;;;;;;5070231;28;20486;-46
2022/05/14 13:43:14;;;;;;;25.95;6.40;;;18.80;79.50;;;;;;5064940;28;20067;-47
2022/05/14 13:45:45;;;;;;;18.30;6.35;;;18.70;79.90;;;;;;5047657;28;20048;-45
2022/05/14 13:48:17;;;;;;;24.27;5.90;;;18.70;81.50;;;;;;5050998;28;20055;-47
2022/05/14 13:50:52;;;;;;;27.95;6.78;;;18.70;81.90;;;;;;5050687;28;20048;-46
2022/05/14 13:53:33;;;;;;;18.95;5.57;;;18.80;81.00;;;;;;5072062;28;20052;-48
2022/05/14 13:56:27;;;;;;;21.85;6.30;;;18.90;82.30;;;;;;5034637;28;20309;-48
2022/05/14 13:59:02;;;;;;;18.60;4.68;;;19.10;81.70;;;;;;5046599;28;20049;-47
2022/05/14 14:01:48;;;;;;;19.25;6.05;;;19.10;80.50;;;;;;5053252;28;20049;-47
2022/05/14 14:04:25;;;;;;;14.88;5.03;;;19.10;80.50;;;;;;5038163;28;20102;-45
2022/05/14 14:07:01;;;;;;;20.58;5.90;;;19.20;80.30;;;;;;5053577;28;20489;-46
2022/05/14 14:09:35;;;;;;;17.50;4.78;;;19.20;81.20;;;;;;5050833;28;20042;-47